createdAt,value
2017-08-16T00:02:12.564Z,6.10
2017-08-16T00:04:39.972Z,5.80
2017-08-16T00:07:07.393Z,6.37
2017-08-16T00:09:34.806Z,6.53
2017-08-16T00:12:02.219Z,6.97
2017-08-16T00:14:29.631Z,5.33
2017-08-16T00:16:57.041Z,6.90
2017-08-16T00:19:24.455Z,5.63
2017-08-16T00:21:51.874Z,5.10
2017-08-16T00:24:20.092Z,5.00
2017-08-16T00:26:48.609Z,4.80
2017-08-16T00:29:16.028Z,5.07
2017-08-16T00:31:43.494Z,5.60
2017-08-16T00:34:10.920Z,6.50
2017-08-16T00:36:38.358Z,5.03
2017-08-16T00:39:06.538Z,5.90
2017-08-16T00:41:34.058Z,5.57
2017-08-16T00:44:01.482Z,5.20
2017-08-16T00:46:28.890Z,5.00
2017-08-16T00:48:56.301Z,5.90
2017-08-16T00:51:23.706Z,4.90
2017-08-16T00:53:51.119Z,6.00
2017-08-16T00:56:18.958Z,4.67
2017-08-16T00:58:47.287Z,5.07
2017-08-16T01:01:14.694Z,3.57
2017-08-16T01:03:42.109Z,6.00
2017-08-16T01:06:09.521Z,3.67
2017-08-16T01:08:36.946Z,3.50
2017-08-16T01:11:04.361Z,3.93
2017-08-16T01:13:31.782Z,4.10
2017-08-16T01:15:59.194Z,4.40
2017-08-16T01:18:27.123Z,4.30
2017-08-16T01:20:54.526Z,3.60
2017-08-16T01:23:22.718Z,5.37
2017-08-16T01:25:50.126Z,4.30
2017-08-16T01:28:17.530Z,4.23
2017-08-16T01:30:44.959Z,5.93
2017-08-16T01:33:12.370Z,5.27
2017-08-16T01:35:39.786Z,6.03
2017-08-16T01:38:07.193Z,5.30
2017-08-16T01:40:35.333Z,5.10
2017-08-16T01:43:02.742Z,5.00
2017-08-16T01:45:30.164Z,6.30
2017-08-16T01:47:57.567Z,5.53
2017-08-16T01:50:24.978Z,5.37
2017-08-16T01:52:52.390Z,6.00
2017-08-16T01:55:20.578Z,5.73
2017-08-16T01:57:47.988Z,5.50
2017-08-16T02:00:15.394Z,6.10
2017-08-16T02:02:42.809Z,8.63
2017-08-16T02:05:10.239Z,6.23
2017-08-16T02:07:37.662Z,5.70
2017-08-16T02:10:05.066Z,6.40
2017-08-16T02:12:32.493Z,5.90
2017-08-16T02:14:59.897Z,6.20
2017-08-16T02:17:27.311Z,6.03
2017-08-16T02:19:54.724Z,5.47
2017-08-16T02:22:22.906Z,5.90
2017-08-16T02:24:50.315Z,9.47
2017-08-16T02:27:17.734Z,5.57
2017-08-16T02:29:45.558Z,6.83
2017-08-16T02:32:12.972Z,6.17
2017-08-16T02:34:40.385Z,5.43
2017-08-16T02:37:07.797Z,5.13
2017-08-16T02:39:35.210Z,5.27
2017-08-16T02:42:02.627Z,5.60
2017-08-16T02:44:30.039Z,6.27
2017-08-16T02:46:57.459Z,4.93
2017-08-16T02:49:24.874Z,5.57
2017-08-16T02:51:52.278Z,4.30
2017-08-16T02:54:20.462Z,4.90
2017-08-16T02:56:47.870Z,4.07
2017-08-16T02:59:16.299Z,4.50
2017-08-16T03:01:43.710Z,4.03
2017-08-16T03:04:11.143Z,5.47
2017-08-16T03:06:38.547Z,3.93
2017-08-16T03:09:05.962Z,4.17
2017-08-16T03:11:33.379Z,5.80
2017-08-16T03:14:00.791Z,5.87
2017-08-16T03:16:28.198Z,3.83
2017-08-16T03:18:55.618Z,6.13
2017-08-16T03:21:23.021Z,4.07
2017-08-16T03:23:50.434Z,4.10
2017-08-16T03:26:18.666Z,3.87
2017-08-16T03:28:46.958Z,4.30
2017-08-16T03:31:14.606Z,4.27
2017-08-16T03:33:42.010Z,4.30
2017-08-16T03:36:09.430Z,4.10
2017-08-16T03:38:36.843Z,5.17
2017-08-16T03:41:04.254Z,5.77
2017-08-16T03:43:31.662Z,6.53
2017-08-16T03:45:59.070Z,4.73
2017-08-16T03:48:26.479Z,7.70
2017-08-16T03:50:53.889Z,4.27
2017-08-16T03:53:21.408Z,6.30
2017-08-16T03:55:48.805Z,3.97
2017-08-16T03:58:16.977Z,4.33
2017-08-16T04:00:45.167Z,7.80
2017-08-16T04:03:14.413Z,4.20
2017-08-16T04:05:41.807Z,4.27
2017-08-16T04:08:09.216Z,6.10
2017-08-16T04:10:36.626Z,4.40
2017-08-16T04:13:04.034Z,4.43
2017-08-16T04:15:31.470Z,4.93
2017-08-16T04:17:58.948Z,5.03
2017-08-16T04:20:27.177Z,4.50
2017-08-16T04:22:54.595Z,5.00
2017-08-16T04:25:22.001Z,10.07
2017-08-16T04:27:49.419Z,5.33
2017-08-16T04:30:16.945Z,5.63
2017-08-16T04:32:44.370Z,6.53
2017-08-16T04:35:11.781Z,6.13
2017-08-16T04:37:39.211Z,5.57
2017-08-16T04:40:06.617Z,4.40
2017-08-16T04:42:34.034Z,4.70
2017-08-16T04:45:01.485Z,6.13
2017-08-16T04:47:28.898Z,7.60
2017-08-16T04:49:56.302Z,7.73
2017-08-16T04:52:23.722Z,7.20
2017-08-16T04:54:51.134Z,8.20
2017-08-16T04:57:18.560Z,6.80
2017-08-16T04:59:45.971Z,7.27
2017-08-16T05:02:13.375Z,7.90
2017-08-16T05:04:40.792Z,8.77
2017-08-16T05:07:08.969Z,7.17
2017-08-16T05:09:36.390Z,9.77
2017-08-16T05:12:03.801Z,10.33
2017-08-16T05:14:31.228Z,11.17
2017-08-16T05:16:58.634Z,9.20
2017-08-16T05:19:26.047Z,10.63
2017-08-16T05:21:54.218Z,9.87
2017-08-16T05:24:22.397Z,9.67
2017-08-16T05:26:49.805Z,8.80
2017-08-16T05:29:17.217Z,9.40
2017-08-16T05:31:44.629Z,11.40
2017-08-16T05:34:12.052Z,10.00
2017-08-16T05:36:39.453Z,9.03
2017-08-16T05:39:06.878Z,6.60
2017-08-16T05:41:34.306Z,6.40
2017-08-16T05:44:01.721Z,7.00
2017-08-16T05:46:29.133Z,7.27
2017-08-16T05:48:56.541Z,7.30
2017-08-16T05:51:24.718Z,8.37
2017-08-16T05:53:52.901Z,10.63
2017-08-16T05:56:21.077Z,9.27
2017-08-16T05:58:48.506Z,8.87
2017-08-16T06:01:15.932Z,11.10
2017-08-16T06:03:43.345Z,10.70
2017-08-16T06:06:10.795Z,12.00
2017-08-16T06:08:38.970Z,9.10
2017-08-16T06:11:07.818Z,13.33
2017-08-16T06:13:35.245Z,11.43
2017-08-16T06:16:02.661Z,12.87
2017-08-16T06:18:30.842Z,11.53
2017-08-16T06:20:59.031Z,14.80
2017-08-16T06:23:26.462Z,14.93
2017-08-16T06:25:53.882Z,14.20
2017-08-16T06:28:21.306Z,16.73
2017-08-16T06:30:48.729Z,16.90
2017-08-16T06:33:16.145Z,16.00
2017-08-16T06:35:43.565Z,18.03
2017-08-16T06:38:10.984Z,14.33
2017-08-16T06:40:38.397Z,14.27
2017-08-16T06:43:05.810Z,14.17
2017-08-16T06:45:33.238Z,13.93
2017-08-16T06:48:00.656Z,15.73
2017-08-16T06:50:28.090Z,16.03
2017-08-16T06:52:56.273Z,14.90
2017-08-16T06:55:24.453Z,16.57
2017-08-16T06:57:51.878Z,15.63
2017-08-16T07:00:19.298Z,19.73
2017-08-16T07:02:48.285Z,13.83
2017-08-16T07:05:15.710Z,15.67
2017-08-16T07:07:43.129Z,15.30
2017-08-16T07:10:10.541Z,15.57
2017-08-16T07:12:37.965Z,15.10
2017-08-16T07:15:06.151Z,19.73
2017-08-16T07:17:33.573Z,16.00
2017-08-16T07:20:00.995Z,13.23
2017-08-16T07:22:32.291Z,14.73
2017-08-16T07:25:00.270Z,14.00
2017-08-16T07:27:27.690Z,12.07
2017-08-16T07:29:55.803Z,12.00
2017-08-16T07:32:23.996Z,14.10
2017-08-16T07:34:51.424Z,14.90
2017-08-16T07:37:19.632Z,17.70
2017-08-16T07:39:47.041Z,16.33
2017-08-16T07:42:14.467Z,17.37
2017-08-16T07:44:41.892Z,14.37
2017-08-16T07:47:09.309Z,13.73
2017-08-16T07:49:36.741Z,13.63
2017-08-16T07:52:04.163Z,14.67
2017-08-16T07:54:31.585Z,12.60
2017-08-16T07:56:59.002Z,13.03
2017-08-16T07:59:26.428Z,14.27
2017-08-16T08:01:53.846Z,13.00
2017-08-16T08:04:21.273Z,13.87
2017-08-16T08:06:48.687Z,11.00
2017-08-16T08:09:16.110Z,13.13
2017-08-16T08:11:43.531Z,12.60
2017-08-16T08:14:10.991Z,14.87
2017-08-16T08:16:38.406Z,13.67
2017-08-16T08:19:06.609Z,13.43
2017-08-16T08:21:34.573Z,12.53
2017-08-16T08:24:04.013Z,13.60
2017-08-16T08:26:31.450Z,13.27
2017-08-16T08:28:58.866Z,13.23
2017-08-16T08:31:27.186Z,13.13
2017-08-16T08:33:54.599Z,13.40
2017-08-16T08:36:22.821Z,12.10
2017-08-16T08:38:50.205Z,16.37
2017-08-16T08:41:17.639Z,11.13
2017-08-16T08:43:45.692Z,11.33
2017-08-16T08:46:13.109Z,11.60
2017-08-16T08:48:41.290Z,9.93
2017-08-16T08:51:08.705Z,9.47
2017-08-16T08:53:36.118Z,9.53
2017-08-16T08:56:03.529Z,9.87
2017-08-16T08:58:30.941Z,9.30
2017-08-16T09:00:58.357Z,9.67
2017-08-16T09:03:26.537Z,9.67
2017-08-16T09:05:54.717Z,9.50
2017-08-16T09:08:22.153Z,10.43
2017-08-16T09:10:49.570Z,12.50
2017-08-16T09:13:16.999Z,12.77
2017-08-16T09:15:44.414Z,11.97
2017-08-16T09:18:12.196Z,11.17
2017-08-16T09:20:39.586Z,9.77
2017-08-16T09:23:07.002Z,10.20
2017-08-16T09:25:35.306Z,10.93
2017-08-16T09:28:03.860Z,10.93
2017-08-16T09:30:33.475Z,11.60
2017-08-16T09:33:05.633Z,10.90
2017-08-16T09:35:33.809Z,10.17
2017-08-16T09:38:02.010Z,9.90
2017-08-16T09:40:29.417Z,9.97
2017-08-16T09:42:56.844Z,10.83
2017-08-16T09:45:24.261Z,11.10
2017-08-16T09:47:52.449Z,9.67
2017-08-16T09:50:19.882Z,9.17
2017-08-16T09:52:47.283Z,10.30
2017-08-16T09:55:14.710Z,10.50
2017-08-16T09:57:42.130Z,9.40
2017-08-16T10:00:09.537Z,9.80
2017-08-16T10:02:36.969Z,10.40
2017-08-16T10:05:05.161Z,8.60
2017-08-16T10:07:32.562Z,8.63
2017-08-16T10:09:59.998Z,9.30
2017-08-16T10:12:27.404Z,8.83
2017-08-16T10:14:55.691Z,9.47
2017-08-16T10:17:23.878Z,9.70
2017-08-16T10:19:52.054Z,9.00
2017-08-16T10:22:19.467Z,7.80
2017-08-16T10:24:46.945Z,7.13
2017-08-16T10:27:14.357Z,7.87
2017-08-16T10:29:42.289Z,7.70
2017-08-16T10:32:09.703Z,8.03
2017-08-16T10:34:37.133Z,8.10
2017-08-16T10:37:04.542Z,8.10
2017-08-16T10:39:32.723Z,8.00
2017-08-16T10:42:00.146Z,7.40
2017-08-16T10:44:27.565Z,8.03
2017-08-16T10:46:54.986Z,7.47
2017-08-16T10:49:23.716Z,7.50
2017-08-16T10:51:51.142Z,8.33
2017-08-16T10:54:20.091Z,8.50
2017-08-16T10:56:48.484Z,7.80
2017-08-16T10:59:15.903Z,8.00
2017-08-16T11:01:43.326Z,7.70
2017-08-16T11:04:10.744Z,7.70
2017-08-16T11:06:38.183Z,8.40
2017-08-16T11:09:05.594Z,7.80
2017-08-16T11:11:33.002Z,8.37
2017-08-16T11:14:00.438Z,7.80
2017-08-16T11:16:27.847Z,9.30
2017-08-16T11:18:56.034Z,8.40
2017-08-16T11:21:23.437Z,7.27
2017-08-16T11:23:57.027Z,7.70
2017-08-16T11:26:24.476Z,6.90
2017-08-16T11:28:51.878Z,7.00
2017-08-16T11:31:19.297Z,7.70
2017-08-16T11:33:47.256Z,7.10
2017-08-16T11:36:14.666Z,7.10
2017-08-16T11:38:42.858Z,7.43
2017-08-16T11:41:10.270Z,10.27
2017-08-16T11:43:38.318Z,7.10
2017-08-16T11:46:05.718Z,7.50
2017-08-16T11:48:33.902Z,7.33
2017-08-16T11:51:02.978Z,6.93
2017-08-16T11:53:30.419Z,6.83
2017-08-16T11:55:57.834Z,6.90
2017-08-16T11:58:25.255Z,6.50
2017-08-16T12:00:52.673Z,7.37
2017-08-16T12:03:20.104Z,7.60
2017-08-16T12:05:47.522Z,7.90
2017-08-16T12:08:15.702Z,7.13
2017-08-16T12:10:43.886Z,7.50
2017-08-16T12:13:12.063Z,7.10
2017-08-16T12:15:39.483Z,7.33
2017-08-16T12:18:06.908Z,6.50
2017-08-16T12:20:34.330Z,6.47
2017-08-16T12:23:09.514Z,7.53
2017-08-16T12:25:36.930Z,6.37
2017-08-16T12:28:04.355Z,7.00
2017-08-16T12:30:31.768Z,6.87
2017-08-16T12:32:59.184Z,6.43
2017-08-16T12:35:27.362Z,6.80
2017-08-16T12:37:55.746Z,6.50
2017-08-16T12:40:23.157Z,6.57
2017-08-16T12:42:51.126Z,6.53
2017-08-16T12:45:18.548Z,6.67
2017-08-16T12:47:45.961Z,7.00
2017-08-16T12:50:13.394Z,6.13
2017-08-16T12:52:40.790Z,6.00
2017-08-16T12:55:08.205Z,6.70
2017-08-16T12:57:35.625Z,8.67
2017-08-16T13:00:03.034Z,5.70
2017-08-16T13:02:30.457Z,6.77
2017-08-16T13:04:57.865Z,5.87
2017-08-16T13:07:27.638Z,6.30
2017-08-16T13:09:55.052Z,6.27
2017-08-16T13:12:22.470Z,6.33
2017-08-16T13:14:49.880Z,6.30
2017-08-16T13:17:17.308Z,7.07
2017-08-16T13:19:44.725Z,6.70
2017-08-16T13:22:21.795Z,5.30
2017-08-16T13:24:49.214Z,6.53
2017-08-16T13:27:16.625Z,9.23
2017-08-16T13:29:44.049Z,6.47
2017-08-16T13:32:11.464Z,5.20
2017-08-16T13:34:38.878Z,5.40
2017-08-16T13:37:06.301Z,5.67
2017-08-16T13:39:33.714Z,5.80
2017-08-16T13:42:01.133Z,5.53
2017-08-16T13:44:28.563Z,6.30
2017-08-16T13:46:56.048Z,6.17
2017-08-16T13:49:23.458Z,6.27
2017-08-16T13:51:51.639Z,6.33
2017-08-16T13:54:19.830Z,6.40
2017-08-16T13:56:47.245Z,10.60
2017-08-16T13:59:14.663Z,7.10
2017-08-16T14:01:42.077Z,7.73
2017-08-16T14:04:10.276Z,7.47
2017-08-16T14:06:37.690Z,7.43
2017-08-16T14:09:05.645Z,7.80
2017-08-16T14:11:33.057Z,6.93
2017-08-16T14:14:00.481Z,6.77
2017-08-16T14:16:28.679Z,6.53
2017-08-16T14:18:56.082Z,7.60
2017-08-16T14:21:23.506Z,6.20
2017-08-16T14:23:55.526Z,7.17
2017-08-16T14:26:23.702Z,6.77
2017-08-16T14:28:51.878Z,6.53
2017-08-16T14:31:22.158Z,8.00
2017-08-16T14:33:50.098Z,6.10
2017-08-16T14:36:17.513Z,6.00
2017-08-16T14:38:44.926Z,7.33
2017-08-16T14:41:12.337Z,10.80
2017-08-16T14:43:39.755Z,7.27
2017-08-16T14:46:07.170Z,6.70
2017-08-16T14:48:34.573Z,8.33
2017-08-16T14:51:01.990Z,6.23
2017-08-16T14:53:29.405Z,8.03
2017-08-16T14:55:56.818Z,6.70
2017-08-16T14:58:24.221Z,6.40
2017-08-16T15:00:52.193Z,6.80
2017-08-16T15:03:21.266Z,6.10
2017-08-16T15:05:49.486Z,5.87
2017-08-16T15:08:16.898Z,8.73
2017-08-16T15:10:44.315Z,7.97
2017-08-16T15:13:11.714Z,6.80
2017-08-16T15:15:39.136Z,6.57
2017-08-16T15:18:06.538Z,7.60
2017-08-16T15:20:35.095Z,8.53
2017-08-16T15:23:03.890Z,7.30
2017-08-16T15:25:31.306Z,6.47
2017-08-16T15:27:58.717Z,6.23
2017-08-16T15:30:26.130Z,6.47
2017-08-16T15:32:54.061Z,6.77
2017-08-16T15:35:22.690Z,7.53
2017-08-16T15:37:50.077Z,7.27
2017-08-16T15:40:17.490Z,7.13
2017-08-16T15:42:44.901Z,6.87
2017-08-16T15:45:13.081Z,6.97
2017-08-16T15:47:41.610Z,7.60
2017-08-16T15:50:09.022Z,7.27
2017-08-16T15:52:38.396Z,8.73
2017-08-16T15:55:05.819Z,6.60
2017-08-16T15:57:33.238Z,6.80
2017-08-16T16:00:01.418Z,7.70
2017-08-16T16:02:28.838Z,8.50
2017-08-16T16:04:56.249Z,7.37
2017-08-16T16:07:24.589Z,6.80
2017-08-16T16:09:52.006Z,8.07
2017-08-16T16:12:19.414Z,7.23
2017-08-16T16:14:47.610Z,11.90
2017-08-16T16:17:15.021Z,9.03
2017-08-16T16:19:42.441Z,7.77
2017-08-16T16:22:09.842Z,7.97
2017-08-16T16:24:38.026Z,8.33
2017-08-16T16:27:06.247Z,9.03
2017-08-16T16:29:33.679Z,8.37
2017-08-16T16:32:01.851Z,7.50
2017-08-16T16:34:29.269Z,7.77
2017-08-16T16:36:56.680Z,6.70
2017-08-16T16:39:24.094Z,9.30
2017-08-16T16:41:51.499Z,6.87
2017-08-16T16:44:20.517Z,7.73
2017-08-16T16:46:47.934Z,8.27
2017-08-16T16:49:15.350Z,7.33
2017-08-16T16:51:42.774Z,7.00
2017-08-16T16:54:10.178Z,6.33
2017-08-16T16:56:38.361Z,6.53
2017-08-16T16:59:05.775Z,6.90
2017-08-16T17:01:33.186Z,6.80
2017-08-16T17:04:00.602Z,6.57
2017-08-16T17:06:28.019Z,7.53
2017-08-16T17:08:56.111Z,6.50
2017-08-16T17:11:23.530Z,8.60
2017-08-16T17:13:50.930Z,8.77
2017-08-16T17:16:18.345Z,7.53
2017-08-16T17:18:45.757Z,6.23
2017-08-16T17:21:13.953Z,6.17
2017-08-16T17:23:41.372Z,7.47
2017-08-16T17:26:08.766Z,9.10
2017-08-16T17:28:36.946Z,7.30
2017-08-16T17:31:04.358Z,7.60
2017-08-16T17:33:31.781Z,8.23
2017-08-16T17:35:59.877Z,6.70
2017-08-16T17:38:27.289Z,6.20
2017-08-16T17:40:54.698Z,6.77
2017-08-16T17:43:22.114Z,6.90
2017-08-16T17:45:49.526Z,6.60
2017-08-16T17:48:17.710Z,7.30
2017-08-16T17:50:45.882Z,7.70
2017-08-16T17:53:15.738Z,7.60
2017-08-16T17:55:43.142Z,6.87
2017-08-16T17:58:12.587Z,6.73
2017-08-16T18:00:39.990Z,7.53
2017-08-16T18:03:07.712Z,9.17
2017-08-16T18:05:35.124Z,8.17
2017-08-16T18:08:03.334Z,7.67
2017-08-16T18:10:30.738Z,9.37
2017-08-16T18:12:58.155Z,11.90
2017-08-16T18:15:25.573Z,8.40
2017-08-16T18:17:53.745Z,7.07
2017-08-16T18:20:21.681Z,9.63
2017-08-16T18:22:49.094Z,9.50
2017-08-16T18:25:16.520Z,8.10
2017-08-16T18:27:43.931Z,9.20
2017-08-16T18:30:11.348Z,7.97
2017-08-16T18:32:40.050Z,8.17
2017-08-16T18:35:09.494Z,12.17
2017-08-16T18:37:36.910Z,10.10
2017-08-16T18:40:05.216Z,7.70
2017-08-16T18:42:33.514Z,7.43
2017-08-16T18:45:00.937Z,9.10
2017-08-16T18:47:28.349Z,8.63
2017-08-16T18:49:56.537Z,9.93
2017-08-16T18:52:23.938Z,8.27
2017-08-16T18:54:52.365Z,8.47
2017-08-16T18:57:20.434Z,8.67
2017-08-16T18:59:49.457Z,9.10
2017-08-16T19:02:16.870Z,8.83
2017-08-16T19:04:45.046Z,9.00
2017-08-16T19:07:13.230Z,10.83
2017-08-16T19:09:40.646Z,8.37
2017-08-16T19:12:08.188Z,12.33
2017-08-16T19:14:35.595Z,9.70
2017-08-16T19:17:03.765Z,9.57
2017-08-16T19:19:31.974Z,8.60
2017-08-16T19:22:00.835Z,8.43
2017-08-16T19:24:29.005Z,14.80
2017-08-16T19:26:57.208Z,8.40
2017-08-16T19:29:25.366Z,10.17
2017-08-16T19:31:52.790Z,8.50
2017-08-16T19:34:20.201Z,7.83
2017-08-16T19:36:47.619Z,9.77
2017-08-16T19:39:16.314Z,9.37
2017-08-16T19:41:44.962Z,8.20
2017-08-16T19:44:12.339Z,9.10
2017-08-16T19:46:39.878Z,10.90
2017-08-16T19:49:08.017Z,9.80
2017-08-16T19:51:35.430Z,8.83
2017-08-16T19:54:03.629Z,10.20
2017-08-16T19:56:31.030Z,8.87
2017-08-16T19:58:59.697Z,8.57
2017-08-16T20:01:27.099Z,8.40
2017-08-16T20:03:54.526Z,11.47
2017-08-16T20:06:21.942Z,10.13
2017-08-16T20:08:49.362Z,10.10
2017-08-16T20:11:16.779Z,10.27
2017-08-16T20:13:44.187Z,10.90
2017-08-16T20:16:12.371Z,10.50
2017-08-16T20:18:40.549Z,12.83
2017-08-16T20:21:07.970Z,8.93
2017-08-16T20:23:35.621Z,13.97
2017-08-16T20:26:03.050Z,10.70
2017-08-16T20:28:30.458Z,8.80
2017-08-16T20:30:58.004Z,9.33
2017-08-16T20:33:25.410Z,9.20
2017-08-16T20:35:52.846Z,11.63
2017-08-16T20:38:20.254Z,11.03
2017-08-16T20:40:47.792Z,8.23
2017-08-16T20:43:15.198Z,8.53
2017-08-16T20:45:42.618Z,12.80
2017-08-16T20:48:12.755Z,9.37
2017-08-16T20:50:40.608Z,10.27
2017-08-16T20:53:08.026Z,10.90
2017-08-16T20:55:35.509Z,11.17
2017-08-16T20:58:02.917Z,11.23
2017-08-16T21:00:31.089Z,10.97
2017-08-16T21:02:59.282Z,12.10
2017-08-16T21:05:26.694Z,12.57
2017-08-16T21:07:54.119Z,10.47
2017-08-16T21:10:21.534Z,11.00
2017-08-16T21:12:49.728Z,9.40
2017-08-16T21:15:17.143Z,12.20
2017-08-16T21:17:45.238Z,14.20
2017-08-16T21:20:12.650Z,9.33
2017-08-16T21:22:40.066Z,11.60
2017-08-16T21:25:08.064Z,12.00
2017-08-16T21:27:35.473Z,10.60
2017-08-16T21:30:03.653Z,14.67
2017-08-16T21:32:31.842Z,10.33
2017-08-16T21:34:59.258Z,11.33
2017-08-16T21:37:26.675Z,13.53
2017-08-16T21:39:54.086Z,10.33
2017-08-16T21:42:22.273Z,16.97
2017-08-16T21:44:49.694Z,8.60
2017-08-16T21:47:17.102Z,10.60
2017-08-16T21:49:44.524Z,7.90
2017-08-16T21:52:11.918Z,8.80
2017-08-16T21:54:39.341Z,10.30
2017-08-16T21:57:06.754Z,11.43
2017-08-16T21:59:34.423Z,14.80
2017-08-16T22:02:02.322Z,8.60
2017-08-16T22:04:30.505Z,10.10
2017-08-16T22:06:58.702Z,12.53
2017-08-16T22:09:26.106Z,9.23
2017-08-16T22:11:53.518Z,9.93
2017-08-16T22:14:20.942Z,9.17
2017-08-16T22:16:49.510Z,9.83
2017-08-16T22:19:16.924Z,12.20
2017-08-16T22:21:44.342Z,10.13
2017-08-16T22:24:12.517Z,12.47
2017-08-16T22:26:40.698Z,11.93
2017-08-16T22:29:08.114Z,9.17
2017-08-16T22:31:36.351Z,9.43
2017-08-16T22:34:03.762Z,13.40
2017-08-16T22:36:31.689Z,10.70
2017-08-16T22:38:59.505Z,10.53
2017-08-16T22:41:26.925Z,10.43
2017-08-16T22:43:54.345Z,12.30
2017-08-16T22:46:21.765Z,12.50
2017-08-16T22:48:49.181Z,11.10
2017-08-16T22:51:16.602Z,10.17
2017-08-16T22:53:44.018Z,9.40
2017-08-16T22:56:11.433Z,12.63
2017-08-16T22:58:38.845Z,13.77
2017-08-16T23:01:07.040Z,8.80
2017-08-16T23:03:34.450Z,12.43
2017-08-16T23:06:01.866Z,10.60
2017-08-16T23:08:29.282Z,9.40
2017-08-16T23:10:56.699Z,10.40
2017-08-16T23:13:24.802Z,9.57
2017-08-16T23:15:52.217Z,9.93
2017-08-16T23:18:19.629Z,8.40
2017-08-16T23:20:47.049Z,8.83
2017-08-16T23:23:16.133Z,10.77
2017-08-16T23:25:43.552Z,11.53
2017-08-16T23:28:11.739Z,14.77
2017-08-16T23:30:39.141Z,12.83
2017-08-16T23:33:07.550Z,13.20
2017-08-16T23:35:34.966Z,8.53
2017-08-16T23:38:02.391Z,10.00
2017-08-16T23:40:29.797Z,9.67
2017-08-16T23:42:57.885Z,9.67
2017-08-16T23:45:42.361Z,9.63
2017-08-16T23:48:11.039Z,9.23
2017-08-16T23:50:38.438Z,11.83
2017-08-16T23:53:05.841Z,9.23
2017-08-16T23:55:33.266Z,9.90
2017-08-16T23:58:00.678Z,11.60
